sensor_id;sensor_type;location;lat;lon;timestamp;P1;durP1;ratioP1;P2;durP2;ratioP2
45322;SDS011;31382;50.200;8.674;2023-07-24T00:05:00;1.20;;;0.60;;
45322;SDS011;31382;50.200;8.674;2023-07-24T00:10:02;0.65;;;0.30;;
45322;SDS011;31382;50.200;8.674;2023-07-24T00:15:04;0.82;;;0.40;;
45322;SDS011;31382;50.200;8.674;2023-07-24T00:20:06;1.10;;;0.50;;
45322;SDS011;31382;50.200;8.674;2023-07-24T00:25:08;1.20;;;0.55;;
45322;SDS011;31382;50.200;8.674;2023-07-24T00:30:10;3.70;;;0.60;;
45322;SDS011;31382;50.200;8.674;2023-07-24T00:35:12;1.95;;;1.05;;
45322;SDS011;31382;50.200;8.674;2023-07-24T00:40:13;2.20;;;0.50;;
45322;SDS011;31382;50.200;8.674;2023-07-24T00:45:15;2.65;;;0.50;;
45322;SDS011;31382;50.200;8.674;2023-07-24T00:50:16;0.98;;;0.50;;
45322;SDS011;31382;50.200;8.674;2023-07-24T00:55:18;0.90;;;0.40;;
45322;SDS011;31382;50.200;8.674;2023-07-24T01:00:20;1.52;;;0.50;;
45322;SDS011;31382;50.200;8.674;2023-07-24T01:05:22;5.25;;;0.60;;
45322;SDS011;31382;50.200;8.674;2023-07-24T01:10:26;1.58;;;0.60;;
45322;SDS011;31382;50.200;8.674;2023-07-24T01:20:35;0.93;;;0.50;;
45322;SDS011;31382;50.200;8.674;2023-07-24T01:25:51;1.08;;;0.85;;
45322;SDS011;31382;50.200;8.674;2023-07-24T01:30:55;0.93;;;0.50;;
45322;SDS011;31382;50.200;8.674;2023-07-24T01:35:58;6.13;;;0.47;;
45322;SDS011;31382;50.200;8.674;2023-07-24T01:41:02;1.50;;;0.50;;
45322;SDS011;31382;50.200;8.674;2023-07-24T01:46:04;1.27;;;0.50;;
45322;SDS011;31382;50.200;8.674;2023-07-24T01:51:05;1.95;;;0.50;;
45322;SDS011;31382;50.200;8.674;2023-07-24T01:56:07;0.98;;;0.57;;
45322;SDS011;31382;50.200;8.674;2023-07-24T02:01:08;6.38;;;0.82;;
45322;SDS011;31382;50.200;8.674;2023-07-24T02:06:10;1.83;;;0.90;;
45322;SDS011;31382;50.200;8.674;2023-07-24T02:11:11;2.97;;;0.70;;
45322;SDS011;31382;50.200;8.674;2023-07-24T02:16:13;2.10;;;0.50;;
45322;SDS011;31382;50.200;8.674;2023-07-24T02:21:14;1.17;;;0.70;;
45322;SDS011;31382;50.200;8.674;2023-07-24T02:26:16;1.27;;;0.50;;
45322;SDS011;31382;50.200;8.674;2023-07-24T02:31:17;2.45;;;0.55;;
45322;SDS011;31382;50.200;8.674;2023-07-24T02:36:18;2.53;;;0.52;;
45322;SDS011;31382;50.200;8.674;2023-07-24T02:41:20;1.10;;;0.68;;
45322;SDS011;31382;50.200;8.674;2023-07-24T02:46:22;3.70;;;0.60;;
45322;SDS011;31382;50.200;8.674;2023-07-24T02:51:25;1.92;;;0.70;;
45322;SDS011;31382;50.200;8.674;2023-07-24T02:56:27;2.50;;;0.70;;
45322;SDS011;31382;50.200;8.674;2023-07-24T03:01:28;3.10;;;0.60;;
45322;SDS011;31382;50.200;8.674;2023-07-24T03:06:30;1.55;;;0.50;;
45322;SDS011;31382;50.200;8.674;2023-07-24T03:11:32;1.38;;;0.68;;
45322;SDS011;31382;50.200;8.674;2023-07-24T03:16:33;3.75;;;1.73;;
45322;SDS011;31382;50.200;8.674;2023-07-24T03:21:35;1.55;;;0.70;;
45322;SDS011;31382;50.200;8.674;2023-07-24T03:26:36;3.53;;;0.70;;
45322;SDS011;31382;50.200;8.674;2023-07-24T03:31:37;3.05;;;0.70;;
45322;SDS011;31382;50.200;8.674;2023-07-24T03:36:39;2.78;;;0.95;;
45322;SDS011;31382;50.200;8.674;2023-07-24T03:41:43;1.27;;;0.60;;
45322;SDS011;31382;50.200;8.674;2023-07-24T03:46:44;1.42;;;0.70;;
45322;SDS011;31382;50.200;8.674;2023-07-24T03:51:46;3.88;;;1.33;;
45322;SDS011;31382;50.200;8.674;2023-07-24T03:56:47;3.03;;;0.73;;
45322;SDS011;31382;50.200;8.674;2023-07-24T04:01:48;2.88;;;0.50;;
45322;SDS011;31382;50.200;8.674;2023-07-24T04:06:50;4.63;;;0.70;;
45322;SDS011;31382;50.200;8.674;2023-07-24T04:11:51;2.55;;;0.57;;
45322;SDS011;31382;50.200;8.674;2023-07-24T04:16:53;1.65;;;0.65;;
45322;SDS011;31382;50.200;8.674;2023-07-24T04:21:56;1.98;;;0.70;;
45322;SDS011;31382;50.200;8.674;2023-07-24T04:26:58;1.27;;;0.57;;
45322;SDS011;31382;50.200;8.674;2023-07-24T04:31:59;2.58;;;0.82;;
45322;SDS011;31382;50.200;8.674;2023-07-24T04:37:00;1.35;;;0.60;;
45322;SDS011;31382;50.200;8.674;2023-07-24T04:42:02;1.30;;;0.60;;
45322;SDS011;31382;50.200;8.674;2023-07-24T04:47:04;5.95;;;0.73;;
45322;SDS011;31382;50.200;8.674;2023-07-24T04:52:05;2.53;;;1.00;;
45322;SDS011;31382;50.200;8.674;2023-07-24T04:57:06;1.88;;;0.82;;
45322;SDS011;31382;50.200;8.674;2023-07-24T05:02:08;2.85;;;0.70;;
45322;SDS011;31382;50.200;8.674;2023-07-24T05:07:09;2.03;;;0.90;;
45322;SDS011;31382;50.200;8.674;2023-07-24T05:12:11;2.10;;;0.90;;
45322;SDS011;31382;50.200;8.674;2023-07-24T05:17:12;4.10;;;1.10;;
45322;SDS011;31382;50.200;8.674;2023-07-24T05:22:14;9.15;;;0.90;;
45322;SDS011;31382;50.200;8.674;2023-07-24T05:27:16;3.80;;;1.40;;
45322;SDS011;31382;50.200;8.674;2023-07-24T05:32:17;6.78;;;1.27;;
45322;SDS011;31382;50.200;8.674;2023-07-24T05:37:19;3.38;;;1.60;;
45322;SDS011;31382;50.200;8.674;2023-07-24T05:42:20;5.80;;;1.27;;
45322;SDS011;31382;50.200;8.674;2023-07-24T05:47:21;4.55;;;1.17;;
45322;SDS011;31382;50.200;8.674;2023-07-24T05:52:23;4.80;;;1.95;;
45322;SDS011;31382;50.200;8.674;2023-07-24T05:57:24;4.13;;;1.35;;
45322;SDS011;31382;50.200;8.674;2023-07-24T06:02:26;2.50;;;1.10;;
45322;SDS011;31382;50.200;8.674;2023-07-24T06:07:27;5.22;;;1.60;;
45322;SDS011;31382;50.200;8.674;2023-07-24T06:12:29;3.03;;;1.50;;
45322;SDS011;31382;50.200;8.674;2023-07-24T06:17:30;4.85;;;1.92;;
45322;SDS011;31382;50.200;8.674;2023-07-24T06:22:32;4.90;;;1.83;;
45322;SDS011;31382;50.200;8.674;2023-07-24T06:27:33;5.65;;;1.63;;
45322;SDS011;31382;50.200;8.674;2023-07-24T06:32:35;2.97;;;1.52;;
45322;SDS011;31382;50.200;8.674;2023-07-24T06:37:36;4.00;;;1.27;;
45322;SDS011;31382;50.200;8.674;2023-07-24T06:42:37;3.53;;;1.48;;
45322;SDS011;31382;50.200;8.674;2023-07-24T06:47:39;3.72;;;1.60;;
45322;SDS011;31382;50.200;8.674;2023-07-24T06:52:40;4.18;;;1.85;;
45322;SDS011;31382;50.200;8.674;2023-07-24T06:57:42;4.47;;;1.65;;
45322;SDS011;31382;50.200;8.674;2023-07-24T07:02:43;5.72;;;2.03;;
45322;SDS011;31382;50.200;8.674;2023-07-24T07:07:45;3.42;;;2.17;;
45322;SDS011;31382;50.200;8.674;2023-07-24T07:12:46;7.53;;;2.08;;
45322;SDS011;31382;50.200;8.674;2023-07-24T07:17:47;3.50;;;1.70;;
45322;SDS011;31382;50.200;8.674;2023-07-24T07:22:49;3.70;;;1.45;;
45322;SDS011;31382;50.200;8.674;2023-07-24T07:27:51;3.70;;;1.88;;
45322;SDS011;31382;50.200;8.674;2023-07-24T07:32:52;4.25;;;1.58;;
45322;SDS011;31382;50.200;8.674;2023-07-24T07:37:54;4.00;;;1.63;;
45322;SDS011;31382;50.200;8.674;2023-07-24T07:42:55;4.72;;;1.05;;
45322;SDS011;31382;50.200;8.674;2023-07-24T07:47:59;7.75;;;1.30;;
45322;SDS011;31382;50.200;8.674;2023-07-24T07:53:00;3.15;;;1.20;;
45322;SDS011;31382;50.200;8.674;2023-07-24T07:58:01;2.88;;;0.98;;
45322;SDS011;31382;50.200;8.674;2023-07-24T08:03:03;3.42;;;1.02;;
45322;SDS011;31382;50.200;8.674;2023-07-24T08:08:04;3.83;;;1.10;;
45322;SDS011;31382;50.200;8.674;2023-07-24T08:13:06;2.25;;;0.80;;
45322;SDS011;31382;50.200;8.674;2023-07-24T08:18:11;2.55;;;1.00;;
45322;SDS011;31382;50.200;8.674;2023-07-24T08:23:13;3.65;;;1.35;;
45322;SDS011;31382;50.200;8.674;2023-07-24T08:28:14;5.30;;;1.10;;
45322;SDS011;31382;50.200;8.674;2023-07-24T08:33:16;1.60;;;0.90;;
45322;SDS011;31382;50.200;8.674;2023-07-24T08:38:17;3.75;;;1.17;;
45322;SDS011;31382;50.200;8.674;2023-07-24T08:43:19;6.43;;;1.30;;
45322;SDS011;31382;50.200;8.674;2023-07-24T08:48:23;2.13;;;1.13;;
45322;SDS011;31382;50.200;8.674;2023-07-24T08:53:24;1.27;;;0.80;;
45322;SDS011;31382;50.200;8.674;2023-07-24T08:58:26;5.90;;;1.25;;
45322;SDS011;31382;50.200;8.674;2023-07-24T09:03:28;1.75;;;0.90;;
45322;SDS011;31382;50.200;8.674;2023-07-24T09:08:34;3.20;;;1.23;;
45322;SDS011;31382;50.200;8.674;2023-07-24T09:13:44;3.75;;;0.90;;
45322;SDS011;31382;50.200;8.674;2023-07-24T09:18:46;4.38;;;1.00;;
45322;SDS011;31382;50.200;8.674;2023-07-24T09:24:09;1.75;;;0.75;;
45322;SDS011;31382;50.200;8.674;2023-07-24T09:29:13;1.67;;;0.80;;
45322;SDS011;31382;50.200;8.674;2023-07-24T09:34:16;2.47;;;0.80;;
45322;SDS011;31382;50.200;8.674;2023-07-24T09:39:24;4.15;;;0.98;;
45322;SDS011;31382;50.200;8.674;2023-07-24T09:44:26;2.08;;;0.70;;
45322;SDS011;31382;50.200;8.674;2023-07-24T09:49:29;5.28;;;0.98;;
45322;SDS011;31382;50.200;8.674;2023-07-24T09:54:33;1.80;;;0.82;;
45322;SDS011;31382;50.200;8.674;2023-07-24T09:59:42;3.28;;;0.93;;
45322;SDS011;31382;50.200;8.674;2023-07-24T10:04:44;2.08;;;1.00;;
45322;SDS011;31382;50.200;8.674;2023-07-24T10:09:46;2.15;;;0.95;;
45322;SDS011;31382;50.200;8.674;2023-07-24T10:14:48;2.10;;;0.90;;
45322;SDS011;31382;50.200;8.674;2023-07-24T10:19:50;4.15;;;0.68;;
45322;SDS011;31382;50.200;8.674;2023-07-24T10:24:51;2.47;;;1.05;;
45322;SDS011;31382;50.200;8.674;2023-07-24T10:30:03;2.00;;;0.88;;
45322;SDS011;31382;50.200;8.674;2023-07-24T10:35:25;2.50;;;1.30;;
45322;SDS011;31382;50.200;8.674;2023-07-24T10:40:39;3.15;;;1.27;;
45322;SDS011;31382;50.200;8.674;2023-07-24T10:45:42;5.55;;;1.70;;
45322;SDS011;31382;50.200;8.674;2023-07-24T10:50:49;3.53;;;1.40;;
45322;SDS011;31382;50.200;8.674;2023-07-24T11:00:56;2.85;;;1.35;;
45322;SDS011;31382;50.200;8.674;2023-07-24T11:05:59;3.22;;;1.42;;
45322;SDS011;31382;50.200;8.674;2023-07-24T11:11:00;4.40;;;1.20;;
45322;SDS011;31382;50.200;8.674;2023-07-24T11:16:06;1.92;;;1.15;;
45322;SDS011;31382;50.200;8.674;2023-07-24T11:21:09;3.17;;;1.38;;
45322;SDS011;31382;50.200;8.674;2023-07-24T11:26:12;2.72;;;1.23;;
45322;SDS011;31382;50.200;8.674;2023-07-24T11:31:17;4.60;;;1.37;;
45322;SDS011;31382;50.200;8.674;2023-07-24T11:36:26;2.08;;;1.45;;
45322;SDS011;31382;50.200;8.674;2023-07-24T11:41:27;4.57;;;1.42;;
45322;SDS011;31382;50.200;8.674;2023-07-24T11:46:29;3.05;;;1.20;;
45322;SDS011;31382;50.200;8.674;2023-07-24T11:51:33;2.95;;;1.40;;
45322;SDS011;31382;50.200;8.674;2023-07-24T11:56:38;4.23;;;1.30;;
45322;SDS011;31382;50.200;8.674;2023-07-24T12:01:39;2.53;;;1.45;;
45322;SDS011;31382;50.200;8.674;2023-07-24T12:06:41;9.35;;;1.60;;
45322;SDS011;31382;50.200;8.674;2023-07-24T12:11:43;2.22;;;1.27;;
45322;SDS011;31382;50.200;8.674;2023-07-24T12:16:47;4.07;;;1.10;;
45322;SDS011;31382;50.200;8.674;2023-07-24T12:21:48;1.80;;;0.98;;
45322;SDS011;31382;50.200;8.674;2023-07-24T12:26:49;1.85;;;1.13;;
45322;SDS011;31382;50.200;8.674;2023-07-24T12:31:51;1.38;;;1.00;;
45322;SDS011;31382;50.200;8.674;2023-07-24T12:36:52;1.95;;;1.20;;
45322;SDS011;31382;50.200;8.674;2023-07-24T12:41:55;4.03;;;1.20;;
45322;SDS011;31382;50.200;8.674;2023-07-24T12:46:56;1.40;;;0.85;;
45322;SDS011;31382;50.200;8.674;2023-07-24T12:51:57;1.45;;;0.85;;
45322;SDS011;31382;50.200;8.674;2023-07-24T12:56:59;2.38;;;1.48;;
45322;SDS011;31382;50.200;8.674;2023-07-24T13:02:01;2.33;;;1.30;;
45322;SDS011;31382;50.200;8.674;2023-07-24T13:07:02;3.80;;;1.20;;
45322;SDS011;31382;50.200;8.674;2023-07-24T13:12:06;2.70;;;1.10;;
45322;SDS011;31382;50.200;8.674;2023-07-24T13:17:08;3.65;;;1.30;;
45322;SDS011;31382;50.200;8.674;2023-07-24T13:22:10;2.55;;;1.10;;
45322;SDS011;31382;50.200;8.674;2023-07-24T13:27:11;2.95;;;1.45;;
45322;SDS011;31382;50.200;8.674;2023-07-24T13:32:13;2.13;;;1.40;;
45322;SDS011;31382;50.200;8.674;2023-07-24T13:37:14;2.33;;;1.05;;
45322;SDS011;31382;50.200;8.674;2023-07-24T13:42:15;3.38;;;1.10;;
45322;SDS011;31382;50.200;8.674;2023-07-24T13:47:17;2.70;;;1.05;;
45322;SDS011;31382;50.200;8.674;2023-07-24T13:52:18;2.90;;;1.15;;
45322;SDS011;31382;50.200;8.674;2023-07-24T13:57:20;2.60;;;1.10;;
45322;SDS011;31382;50.200;8.674;2023-07-24T14:02:21;2.38;;;1.20;;
45322;SDS011;31382;50.200;8.674;2023-07-24T14:07:22;3.28;;;1.33;;
45322;SDS011;31382;50.200;8.674;2023-07-24T14:12:24;8.15;;;1.40;;
45322;SDS011;31382;50.200;8.674;2023-07-24T14:17:26;4.57;;;1.30;;
45322;SDS011;31382;50.200;8.674;2023-07-24T14:22:28;7.22;;;1.30;;
45322;SDS011;31382;50.200;8.674;2023-07-24T14:27:30;1.95;;;1.08;;
45322;SDS011;31382;50.200;8.674;2023-07-24T14:32:31;2.75;;;1.30;;
45322;SDS011;31382;50.200;8.674;2023-07-24T14:37:32;5.03;;;1.20;;
45322;SDS011;31382;50.200;8.674;2023-07-24T14:42:34;1.98;;;0.90;;
45322;SDS011;31382;50.200;8.674;2023-07-24T14:47:35;2.78;;;1.15;;
45322;SDS011;31382;50.200;8.674;2023-07-24T14:52:36;7.60;;;0.88;;
45322;SDS011;31382;50.200;8.674;2023-07-24T14:57:38;2.55;;;0.50;;
45322;SDS011;31382;50.200;8.674;2023-07-24T15:02:40;4.13;;;0.57;;
45322;SDS011;31382;50.200;8.674;2023-07-24T15:07:42;1.17;;;0.50;;
45322;SDS011;31382;50.200;8.674;2023-07-24T15:12:43;3.20;;;0.70;;
45322;SDS011;31382;50.200;8.674;2023-07-24T15:17:45;1.25;;;0.52;;
45322;SDS011;31382;50.200;8.674;2023-07-24T15:22:46;4.25;;;0.70;;
45322;SDS011;31382;50.200;8.674;2023-07-24T15:27:47;0.90;;;0.40;;
45322;SDS011;31382;50.200;8.674;2023-07-24T15:32:49;0.77;;;0.40;;
45322;SDS011;31382;50.200;8.674;2023-07-24T15:37:50;0.30;;;0.30;;
45322;SDS011;31382;50.200;8.674;2023-07-24T15:42:52;0.65;;;0.30;;
45322;SDS011;31382;50.200;8.674;2023-07-24T15:47:53;0.57;;;0.20;;
45322;SDS011;31382;50.200;8.674;2023-07-24T15:52:54;0.65;;;0.20;;
45322;SDS011;31382;50.200;8.674;2023-07-24T15:57:56;0.93;;;0.30;;
45322;SDS011;31382;50.200;8.674;2023-07-24T16:03:00;2.20;;;0.43;;
45322;SDS011;31382;50.200;8.674;2023-07-24T16:08:01;1.50;;;0.40;;
45322;SDS011;31382;50.200;8.674;2023-07-24T16:13:03;0.50;;;0.30;;
45322;SDS011;31382;50.200;8.674;2023-07-24T16:18:05;2.30;;;0.43;;
45322;SDS011;31382;50.200;8.674;2023-07-24T16:23:07;2.15;;;0.30;;
45322;SDS011;31382;50.200;8.674;2023-07-24T16:28:08;5.97;;;0.40;;
45322;SDS011;31382;50.200;8.674;2023-07-24T16:33:10;0.77;;;0.20;;
45322;SDS011;31382;50.200;8.674;2023-07-24T16:38:11;0.88;;;0.32;;
45322;SDS011;31382;50.200;8.674;2023-07-24T16:43:16;1.27;;;0.20;;
45322;SDS011;31382;50.200;8.674;2023-07-24T16:48:17;0.57;;;0.22;;
45322;SDS011;31382;50.200;8.674;2023-07-24T16:53:19;0.95;;;0.20;;
45322;SDS011;31382;50.200;8.674;2023-07-24T16:58:20;1.33;;;0.25;;
45322;SDS011;31382;50.200;8.674;2023-07-24T17:03:22;1.42;;;0.95;;
45322;SDS011;31382;50.200;8.674;2023-07-24T17:08:24;0.70;;;0.30;;
45322;SDS011;31382;50.200;8.674;2023-07-24T17:13:25;0.40;;;0.28;;
45322;SDS011;31382;50.200;8.674;2023-07-24T17:18:26;0.80;;;0.22;;
45322;SDS011;31382;50.200;8.674;2023-07-24T17:23:28;0.32;;;0.20;;
45322;SDS011;31382;50.200;8.674;2023-07-24T17:28:29;0.70;;;0.40;;
45322;SDS011;31382;50.200;8.674;2023-07-24T17:33:31;0.70;;;0.40;;
45322;SDS011;31382;50.200;8.674;2023-07-24T17:38:33;1.02;;;0.20;;
45322;SDS011;31382;50.200;8.674;2023-07-24T17:43:34;1.42;;;0.28;;
45322;SDS011;31382;50.200;8.674;2023-07-24T17:48:35;0.47;;;0.30;;
45322;SDS011;31382;50.200;8.674;2023-07-24T17:53:38;0.93;;;0.32;;
45322;SDS011;31382;50.200;8.674;2023-07-24T17:58:39;3.90;;;0.30;;
45322;SDS011;31382;50.200;8.674;2023-07-24T18:03:40;1.00;;;0.38;;
45322;SDS011;31382;50.200;8.674;2023-07-24T18:08:42;0.80;;;0.25;;
45322;SDS011;31382;50.200;8.674;2023-07-24T18:13:43;0.77;;;0.38;;
45322;SDS011;31382;50.200;8.674;2023-07-24T18:18:45;3.75;;;0.40;;
45322;SDS011;31382;50.200;8.674;2023-07-24T18:23:46;0.65;;;0.20;;
45322;SDS011;31382;50.200;8.674;2023-07-24T18:28:48;2.22;;;0.20;;
45322;SDS011;31382;50.200;8.674;2023-07-24T18:33:49;0.90;;;0.40;;
45322;SDS011;31382;50.200;8.674;2023-07-24T18:38:51;1.05;;;0.30;;
45322;SDS011;31382;50.200;8.674;2023-07-24T18:43:52;1.67;;;0.20;;
45322;SDS011;31382;50.200;8.674;2023-07-24T18:48:53;0.50;;;0.20;;
45322;SDS011;31382;50.200;8.674;2023-07-24T18:53:55;0.70;;;0.20;;
45322;SDS011;31382;50.200;8.674;2023-07-24T18:58:56;0.25;;;0.10;;
45322;SDS011;31382;50.200;8.674;2023-07-24T19:03:57;0.25;;;0.13;;
45322;SDS011;31382;50.200;8.674;2023-07-24T19:08:59;0.20;;;0.10;;
45322;SDS011;31382;50.200;8.674;2023-07-24T19:14:00;2.17;;;0.10;;
45322;SDS011;31382;50.200;8.674;2023-07-24T19:19:02;1.23;;;0.10;;
45322;SDS011;31382;50.200;8.674;2023-07-24T19:24:06;0.60;;;0.20;;
45322;SDS011;31382;50.200;8.674;2023-07-24T19:29:08;0.30;;;0.13;;
45322;SDS011;31382;50.200;8.674;2023-07-24T19:34:09;0.20;;;0.10;;
45322;SDS011;31382;50.200;8.674;2023-07-24T19:39:10;0.50;;;0.10;;
45322;SDS011;31382;50.200;8.674;2023-07-24T19:44:12;0.20;;;0.10;;
45322;SDS011;31382;50.200;8.674;2023-07-24T19:49:13;0.30;;;0.10;;
45322;SDS011;31382;50.200;8.674;2023-07-24T19:54:15;0.30;;;0.20;;
45322;SDS011;31382;50.200;8.674;2023-07-24T19:59:16;0.85;;;0.10;;
45322;SDS011;31382;50.200;8.674;2023-07-24T20:04:17;0.10;;;0.10;;
45322;SDS011;31382;50.200;8.674;2023-07-24T20:09:19;0.38;;;0.10;;
45322;SDS011;31382;50.200;8.674;2023-07-24T20:14:20;0.30;;;0.22;;
45322;SDS011;31382;50.200;8.674;2023-07-24T20:19:22;0.10;;;0.10;;
45322;SDS011;31382;50.200;8.674;2023-07-24T20:24:23;0.20;;;0.10;;
45322;SDS011;31382;50.200;8.674;2023-07-24T20:29:24;0.30;;;0.20;;
45322;SDS011;31382;50.200;8.674;2023-07-24T20:34:26;0.40;;;0.20;;
45322;SDS011;31382;50.200;8.674;2023-07-24T20:39:27;2.33;;;0.20;;
45322;SDS011;31382;50.200;8.674;2023-07-24T20:44:29;0.65;;;0.10;;
45322;SDS011;31382;50.200;8.674;2023-07-24T20:49:32;2.20;;;0.20;;
45322;SDS011;31382;50.200;8.674;2023-07-24T20:54:35;0.20;;;0.10;;
45322;SDS011;31382;50.200;8.674;2023-07-24T20:59:36;0.25;;;0.10;;
45322;SDS011;31382;50.200;8.674;2023-07-24T21:04:40;0.68;;;0.20;;
45322;SDS011;31382;50.200;8.674;2023-07-24T21:09:42;0.20;;;0.10;;
45322;SDS011;31382;50.200;8.674;2023-07-24T21:14:43;0.43;;;0.43;;
45322;SDS011;31382;50.200;8.674;2023-07-24T21:19:45;0.73;;;0.10;;
45322;SDS011;31382;50.200;8.674;2023-07-24T21:24:47;0.15;;;0.10;;
45322;SDS011;31382;50.200;8.674;2023-07-24T21:29:51;0.35;;;0.20;;
45322;SDS011;31382;50.200;8.674;2023-07-24T21:34:53;0.47;;;0.20;;
45322;SDS011;31382;50.200;8.674;2023-07-24T21:39:54;0.20;;;0.10;;
45322;SDS011;31382;50.200;8.674;2023-07-24T21:44:56;0.22;;;0.17;;
45322;SDS011;31382;50.200;8.674;2023-07-24T21:49:57;0.40;;;0.20;;
45322;SDS011;31382;50.200;8.674;2023-07-24T21:54:59;1.33;;;0.17;;
45322;SDS011;31382;50.200;8.674;2023-07-24T22:00:00;0.60;;;0.20;;
45322;SDS011;31382;50.200;8.674;2023-07-24T22:05:02;1.13;;;0.20;;
45322;SDS011;31382;50.200;8.674;2023-07-24T22:10:04;0.65;;;0.10;;
45322;SDS011;31382;50.200;8.674;2023-07-24T22:15:06;0.20;;;0.10;;
45322;SDS011;31382;50.200;8.674;2023-07-24T22:20:08;0.30;;;0.20;;
45322;SDS011;31382;50.200;8.674;2023-07-24T22:25:13;4.57;;;0.75;;
45322;SDS011;31382;50.200;8.674;2023-07-24T22:30:15;0.93;;;0.20;;
45322;SDS011;31382;50.200;8.674;2023-07-24T22:35:16;2.38;;;0.28;;
45322;SDS011;31382;50.200;8.674;2023-07-24T22:40:17;0.73;;;0.20;;
45322;SDS011;31382;50.200;8.674;2023-07-24T22:45:19;2.75;;;0.20;;
45322;SDS011;31382;50.200;8.674;2023-07-24T22:50:21;0.65;;;0.30;;
45322;SDS011;31382;50.200;8.674;2023-07-24T22:55:23;1.95;;;0.30;;
45322;SDS011;31382;50.200;8.674;2023-07-24T23:00:24;0.70;;;0.20;;
45322;SDS011;31382;50.200;8.674;2023-07-24T23:05:25;0.82;;;0.30;;
45322;SDS011;31382;50.200;8.674;2023-07-24T23:10:27;0.25;;;0.20;;
45322;SDS011;31382;50.200;8.674;2023-07-24T23:15:28;0.50;;;0.20;;
45322;SDS011;31382;50.200;8.674;2023-07-24T23:20:30;1.63;;;0.43;;
45322;SDS011;31382;50.200;8.674;2023-07-24T23:25:33;1.17;;;0.30;;
45322;SDS011;31382;50.200;8.674;2023-07-24T23:30:38;0.85;;;0.32;;
45322;SDS011;31382;50.200;8.674;2023-07-24T23:35:41;0.25;;;0.25;;
45322;SDS011;31382;50.200;8.674;2023-07-24T23:40:42;0.88;;;0.30;;
45322;SDS011;31382;50.200;8.674;2023-07-24T23:45:44;0.45;;;0.20;;
45322;SDS011;31382;50.200;8.674;2023-07-24T23:50:45;0.75;;;0.30;;
45322;SDS011;31382;50.200;8.674;2023-07-24T23:55:46;2.17;;;0.20;;
